Hlavní strana
METAR-TAF:

METAR-TAF

Letiště :

Hasvik, Norsko

zeměpisná šířka: 70-29N, zeměpisná délka: 022-09E, výška: 10 m

Aktuální stav počasí

Zpráva byla vytvořena před 18 minutami, v 15:20 UTC
Západní vítr 16 kt
Teplota 5°C
Vlhkost vzduchu 87%
Tlak 997 hPa
Viditelnost 10 km a více
Skoro jasno ve výšce 1000 ft
Polojasno ve výšce 1500 ft
Oblačno až skoro zataženo ve výšce 2000 ft
slabý déšť, mrholení

METAR: ENHK 281520Z 27016KT 9999 -RADZ FEW010 SCT015 BKN020 05/03 Q0997

Čas: 16:38 (15:38 UTC)


TAF: chybějící

Stav a předpovědi počasí z více než 4 000 letišť (zprávy METAR a TAF).

Červené a žluté tečky na mapě představují dostupné meteorologické stanice.

Když kurzor umístíte na tečku, zobrazí se název stanice.

Pak kliknutím zobrazíte stav a předpověď počasí.

Chcete-li změnit mapu, kliknutím na zelené tlačítko se znaménkem +mapu přiblížíte, kliknutím na zelené tlačítko se znaménkem – mapu oddálíte a kliknutím na zelené šipky přejdete na sousední mapy.


METAR-TAF: